Time,TemperatureF,DewpointF,PressureIn,WindDirection,WindDirectionDegrees,WindSpeedMPH,WindSpeedGustMPH,Humidity,HourlyPrecipIn,Conditions,Clouds,dailyrainin,SoftwareType,DateUTC
2013-01-14 00:09:00,33.7,31.0,30.08,WNW,290,9.0,-999.0,91,-99.99,,,0.57,weatherlink.com 1.10,2013-01-14 05:09:00,
2013-01-14 00:24:00,33.2,30.0,30.09,WNW,295,7.0,-999.0,89,-99.99,,,0.57,weatherlink.com 1.10,2013-01-14 05:24:00,
2013-01-14 00:39:00,32.7,29.0,30.09,WNW,288,6.0,-999.0,86,-99.99,,,0.57,weatherlink.com 1.10,2013-01-14 05:39:00,
2013-01-14 00:54:00,32.4,29.0,30.11,West,262,6.0,-999.0,86,-99.99,,,0.57,weatherlink.com 1.10,2013-01-14 05:54:00,
2013-01-14 01:09:00,31.7,28.0,30.11,WNW,297,5.0,-999.0,85,-99.99,,,0.57,weatherlink.com 1.10,2013-01-14 06:09:00,
2013-01-14 01:24:00,31.3,27.0,30.12,West,278,10.0,-999.0,85,-99.99,,,0.57,weatherlink.com 1.10,2013-01-14 06:24:00,
2013-01-14 01:39:00,31.2,27.0,30.13,WNW,288,11.0,-999.0,83,-99.99,,,0.57,weatherlink.com 1.10,2013-01-14 06:39:00,
2013-01-14 01:54:00,31.1,27.0,30.14,WNW,297,9.0,-999.0,84,-99.99,,,0.57,weatherlink.com 1.10,2013-01-14 06:54:00,
2013-01-14 02:09:00,31.0,26.0,30.15,WNW,297,7.0,-999.0,83,-99.99,,,0.57,weatherlink.com 1.10,2013-01-14 07:09:00,
2013-01-14 02:24:00,-999.0,-99.9,30.16,North,-999,-999.0,-999.0,-999,-99.99,,,0.00,weatherlink.com 1.10,2013-01-14 07:24:00,
2013-01-14 02:39:00,-999.0,-99.9,30.18,North,-999,-999.0,-999.0,-999,-99.99,,,0.00,weatherlink.com 1.10,2013-01-14 07:39:00,
2013-01-14 02:54:00,-999.0,-99.9,30.19,North,-999,-999.0,-999.0,-999,-99.99,,,0.00,weatherlink.com 1.10,2013-01-14 07:54:00,
2013-01-14 03:09:00,-999.0,-99.9,30.20,North,-999,-999.0,-999.0,-999,-99.99,,,0.00,weatherlink.com 1.10,2013-01-14 08:09:00,
2013-01-14 03:24:00,-999.0,-99.9,30.21,North,-999,-999.0,-999.0,-999,-99.99,,,0.00,weatherlink.com 1.10,2013-01-14 08:24:00,
2013-01-14 03:39:00,-999.0,-99.9,30.21,North,-999,-999.0,-999.0,-999,-99.99,,,0.00,weatherlink.com 1.10,2013-01-14 08:39:00,
2013-01-14 03:54:00,-999.0,-99.9,30.22,North,-999,-999.0,-999.0,-999,-99.99,,,0.00,weatherlink.com 1.10,2013-01-14 08:54:00,
2013-01-14 04:09:00,-999.0,-99.9,30.23,North,-999,-999.0,-999.0,-999,-99.99,,,0.00,weatherlink.com 1.10,2013-01-14 09:09:00,
2013-01-14 04:24:00,-999.0,-99.9,30.24,North,-999,-999.0,-999.0,-999,-99.99,,,0.00,weatherlink.com 1.10,2013-01-14 09:24:00,
2013-01-14 04:39:00,-999.0,-99.9,30.24,North,-999,-999.0,-999.0,-999,-99.99,,,0.00,weatherlink.com 1.10,2013-01-14 09:39:00,
2013-01-14 04:54:00,-999.0,-99.9,30.24,North,-999,-999.0,-999.0,-999,-99.99,,,0.00,weatherlink.com 1.10,2013-01-14 09:54:00,
2013-01-14 05:09:00,-999.0,-99.9,30.25,North,-999,-999.0,-999.0,-999,-99.99,,,0.00,weatherlink.com 1.10,2013-01-14 10:09:00,
2013-01-14 05:24:00,-999.0,-99.9,30.26,North,-999,-999.0,-999.0,-999,-99.99,,,0.00,weatherlink.com 1.10,2013-01-14 10:24:00,
2013-01-14 05:39:00,-999.0,-99.9,30.27,North,-999,-999.0,-999.0,-999,-99.99,,,0.00,weatherlink.com 1.10,2013-01-14 10:39:00,
2013-01-14 05:54:00,-999.0,-99.9,30.28,North,-999,-999.0,-999.0,-999,-99.99,,,0.00,weatherlink.com 1.10,2013-01-14 10:54:00,
2013-01-14 06:09:00,-999.0,-99.9,30.29,North,-999,-999.0,-999.0,-999,-99.99,,,0.00,weatherlink.com 1.10,2013-01-14 11:09:00,
2013-01-14 06:24:00,-999.0,-99.9,30.30,North,-999,-999.0,-999.0,-999,-99.99,,,0.00,weatherlink.com 1.10,2013-01-14 11:24:00,
2013-01-14 06:54:00,-999.0,-99.9,30.31,North,-999,-999.0,-999.0,-999,-99.99,,,0.00,weatherlink.com 1.10,2013-01-14 11:54:00,
2013-01-14 07:09:00,-999.0,-99.9,30.32,North,-999,-999.0,-999.0,-999,-99.99,,,0.00,weatherlink.com 1.10,2013-01-14 12:09:00,
2013-01-14 07:24:00,-999.0,-99.9,30.32,North,-999,-999.0,-999.0,-999,-99.99,,,0.00,weatherlink.com 1.10,2013-01-14 12:24:00,
2013-01-14 07:39:00,-999.0,-99.9,30.33,North,-999,-999.0,-999.0,-999,-99.99,,,0.00,weatherlink.com 1.10,2013-01-14 12:39:00,
2013-01-14 07:54:00,-999.0,-99.9,30.34,North,-999,-999.0,-999.0,-999,-99.99,,,0.00,weatherlink.com 1.10,2013-01-14 12:54:00,
2013-01-14 08:09:00,-999.0,-99.9,30.35,North,-999,-999.0,-999.0,-999,-99.99,,,0.00,weatherlink.com 1.10,2013-01-14 13:09:00,
2013-01-14 08:24:00,-999.0,-99.9,30.37,North,-999,-999.0,-999.0,-999,-99.99,,,0.00,weatherlink.com 1.10,2013-01-14 13:24:00,
2013-01-14 08:39:00,-999.0,-99.9,30.38,North,-999,-999.0,-999.0,-999,-99.99,,,0.00,weatherlink.com 1.10,2013-01-14 13:39:00,
2013-01-14 08:54:00,-999.0,-99.9,30.39,North,-999,-999.0,-999.0,-999,-99.99,,,0.00,weatherlink.com 1.10,2013-01-14 13:54:00,
2013-01-14 09:09:00,25.6,20.0,30.39,WNW,285,9.0,-999.0,80,-99.99,,,0.00,weatherlink.com 1.10,2013-01-14 14:09:00,
2013-01-14 09:24:00,25.6,21.0,30.40,WSW,255,8.0,-999.0,81,-99.99,,,0.00,weatherlink.com 1.10,2013-01-14 14:24:00,
2013-01-14 09:39:00,25.8,21.0,30.41,WSW,250,4.0,-999.0,82,-99.99,,,0.00,weatherlink.com 1.10,2013-01-14 14:39:00,
2013-01-14 09:54:00,25.9,21.0,30.42,WNW,292,5.0,-999.0,82,-99.99,,,0.00,weatherlink.com 1.10,2013-01-14 14:54:00,
2013-01-14 10:09:00,26.1,22.0,30.42,WNW,287,2.0,-999.0,83,-99.99,,,0.00,weatherlink.com 1.10,2013-01-14 15:09:00,
2013-01-14 10:24:00,26.2,21.0,30.42,WNW,298,7.0,-999.0,82,-99.99,,,0.00,weatherlink.com 1.10,2013-01-14 15:24:00,
2013-01-14 10:54:00,25.8,21.0,30.43,WNW,302,6.0,-999.0,81,-99.99,,,0.00,weatherlink.com 1.10,2013-01-14 15:54:00,
2013-01-14 11:09:00,25.9,20.0,30.43,West,281,4.0,-999.0,79,-99.99,,,0.00,weatherlink.com 1.10,2013-01-14 16:09:00,
2013-01-14 11:24:00,25.9,20.0,30.42,NW,319,5.0,-999.0,78,-99.99,,,0.00,weatherlink.com 1.10,2013-01-14 16:24:00,
2013-01-14 11:39:00,25.8,19.0,30.42,NW,318,3.0,-999.0,76,-99.99,,,0.00,weatherlink.com 1.10,2013-01-14 16:39:00,
2013-01-14 11:54:00,26.0,19.0,30.41,NW,319,5.0,-999.0,75,-99.99,,,0.00,weatherlink.com 1.10,2013-01-14 16:54:00,
2013-01-14 12:09:00,26.1,19.0,30.40,WSW,253,2.0,-999.0,75,-99.99,,,0.00,weatherlink.com 1.10,2013-01-14 17:09:00,
2013-01-14 12:24:00,26.3,19.0,30.38,NW,320,1.0,-999.0,75,-99.99,,,0.00,weatherlink.com 1.10,2013-01-14 17:24:00,
2013-01-14 12:39:00,26.4,19.0,30.39,NW,308,3.0,-999.0,74,-99.99,,,0.00,weatherlink.com 1.10,2013-01-14 17:39:00,
2013-01-14 12:54:00,26.5,20.0,30.39,WNW,297,2.0,-999.0,75,-99.99,,,0.00,weatherlink.com 1.10,2013-01-14 17:54:00,
2013-01-14 13:09:00,26.3,19.0,30.38,NNE,17,6.0,-999.0,75,-99.99,,,0.00,weatherlink.com 1.10,2013-01-14 18:09:00,
2013-01-14 13:24:00,26.4,19.0,30.39,NNW,336,0.0,-999.0,74,-99.99,,,0.00,weatherlink.com 1.10,2013-01-14 18:24:00,
2013-01-14 13:39:00,26.7,19.0,30.40,NNW,334,1.0,-999.0,72,-99.99,,,0.00,weatherlink.com 1.10,2013-01-14 18:39:00,
2013-01-14 13:54:00,26.8,20.0,30.41,NW,304,4.0,-999.0,74,-99.99,,,0.00,weatherlink.com 1.10,2013-01-14 18:54:00,
2013-01-14 14:09:00,26.5,19.0,30.42,West,267,0.0,-999.0,73,-99.99,,,0.00,weatherlink.com 1.10,2013-01-14 19:09:00,
2013-01-14 14:24:00,26.9,19.0,30.42,North,358,1.0,-999.0,72,-99.99,,,0.00,weatherlink.com 1.10,2013-01-14 19:24:00,
2013-01-14 14:39:00,27.0,20.0,30.42,SSW,210,0.0,-999.0,74,-99.99,,,0.00,weatherlink.com 1.10,2013-01-14 19:39:00,
2013-01-14 14:54:00,27.0,20.0,30.41,WNW,297,3.0,-999.0,74,-99.99,,,0.00,weatherlink.com 1.10,2013-01-14 19:54:00,
2013-01-14 15:09:00,27.0,20.0,30.43,WNW,295,3.0,-999.0,74,-99.99,,,0.00,weatherlink.com 1.10,2013-01-14 20:09:00,
2013-01-14 15:24:00,26.9,20.0,30.43,WNW,293,2.0,-999.0,75,-99.99,,,0.00,weatherlink.com 1.10,2013-01-14 20:24:00,
2013-01-14 15:39:00,26.7,19.0,30.43,West,278,2.0,-999.0,74,-99.99,,,0.00,weatherlink.com 1.10,2013-01-14 20:39:00,
2013-01-14 15:54:00,26.9,20.0,30.45,West,277,3.0,-999.0,75,-99.99,,,0.00,weatherlink.com 1.10,2013-01-14 20:54:00,
2013-01-14 16:09:00,26.9,20.0,30.47,WNW,290,4.0,-999.0,74,-99.99,,,0.00,weatherlink.com 1.10,2013-01-14 21:09:00,
2013-01-14 16:24:00,26.8,20.0,30.47,West,276,2.0,-999.0,74,-99.99,,,0.00,weatherlink.com 1.10,2013-01-14 21:24:00,
2013-01-14 16:39:00,26.7,20.0,30.46,NW,315,2.0,-999.0,75,-99.99,,,0.00,weatherlink.com 1.10,2013-01-14 21:39:00,
2013-01-14 16:54:00,26.7,20.0,30.48,WSW,252,4.0,-999.0,76,-99.99,,,0.00,weatherlink.com 1.10,2013-01-14 21:54:00,
2013-01-14 17:09:00,26.9,20.0,30.49,SW,219,4.0,-999.0,76,-99.99,,,0.00,weatherlink.com 1.10,2013-01-14 22:09:00,
2013-01-14 17:54:00,26.6,20.0,30.48,WSW,256,0.0,-999.0,77,-99.99,,,0.00,weatherlink.com 1.10,2013-01-14 22:54:00,
2013-01-14 18:09:00,26.6,20.0,30.47,WNW,299,3.0,-999.0,76,-99.99,,,0.00,weatherlink.com 1.10,2013-01-14 23:09:00,
2013-01-14 18:24:00,26.5,20.0,30.46,WNW,300,2.0,-999.0,77,-99.99,,,0.00,weatherlink.com 1.10,2013-01-14 23:24:00,
2013-01-14 18:39:00,26.5,21.0,30.46,WNW,295,2.0,-999.0,78,-99.99,,,0.00,weatherlink.com 1.10,2013-01-14 23:39:00,
2013-01-14 18:54:00,26.4,20.0,30.47,NW,304,6.0,-999.0,78,-99.99,,,0.00,weatherlink.com 1.10,2013-01-14 23:54:00,
2013-01-14 19:09:00,26.4,20.0,30.46,WNW,294,4.0,-999.0,78,-99.99,,,0.00,weatherlink.com 1.10,2013-01-15 00:09:00,
2013-01-14 19:24:00,26.3,20.0,30.45,WNW,283,4.0,-999.0,78,-99.99,,,0.00,weatherlink.com 1.10,2013-01-15 00:24:00,
2013-01-14 19:39:00,26.0,20.0,30.45,WNW,295,4.0,-999.0,79,-99.99,,,0.00,weatherlink.com 1.10,2013-01-15 00:39:00,
2013-01-14 19:54:00,25.7,20.0,30.45,WNW,294,3.0,-999.0,80,-99.99,,,0.00,weatherlink.com 1.10,2013-01-15 00:54:00,
2013-01-14 20:09:00,25.7,21.0,30.45,WNW,302,4.0,-999.0,81,-99.99,,,0.00,weatherlink.com 1.10,2013-01-15 01:09:00,
2013-01-14 20:24:00,25.9,21.0,30.44,WNW,302,3.0,-999.0,81,-99.99,,,0.00,weatherlink.com 1.10,2013-01-15 01:24:00,
2013-01-14 20:39:00,25.9,21.0,30.44,WNW,296,4.0,-999.0,81,-99.99,,,0.00,weatherlink.com 1.10,2013-01-15 01:39:00,
2013-01-14 20:54:00,25.6,21.0,30.44,WNW,300,3.0,-999.0,81,-99.99,,,0.00,weatherlink.com 1.10,2013-01-15 01:54:00,
2013-01-14 21:09:00,25.3,20.0,30.44,NW,308,1.0,-999.0,81,-99.99,,,0.00,weatherlink.com 1.10,2013-01-15 02:09:00,
2013-01-14 21:24:00,24.7,20.0,30.44,NW,316,1.0,-999.0,82,-99.99,,,0.00,weatherlink.com 1.10,2013-01-15 02:24:00,
2013-01-14 21:39:00,24.3,20.0,30.44,NW,308,0.0,-999.0,83,-99.99,,,0.00,weatherlink.com 1.10,2013-01-15 02:39:00,
2013-01-14 21:54:00,23.8,20.0,30.44,NW,308,0.0,-999.0,84,-99.99,,,0.00,weatherlink.com 1.10,2013-01-15 02:54:00,
2013-01-14 22:09:00,23.3,20.0,30.44,NW,308,0.0,-999.0,85,-99.99,,,0.00,weatherlink.com 1.10,2013-01-15 03:09:00,
2013-01-14 22:24:00,22.7,19.0,30.43,NW,307,0.0,-999.0,86,-99.99,,,0.00,weatherlink.com 1.10,2013-01-15 03:24:00,
2013-01-14 22:39:00,22.7,19.0,30.43,NW,308,0.0,-999.0,87,-99.99,,,0.00,weatherlink.com 1.10,2013-01-15 03:39:00,
2013-01-14 22:54:00,22.1,19.0,30.43,NW,308,0.0,-999.0,87,-99.99,,,0.00,weatherlink.com 1.10,2013-01-15 03:54:00,
2013-01-14 23:09:00,20.9,18.0,30.43,NW,308,0.0,-999.0,89,-99.99,,,0.00,weatherlink.com 1.10,2013-01-15 04:09:00,
2013-01-14 23:24:00,20.4,18.0,30.43,NW,308,0.0,-999.0,90,-99.99,,,0.00,weatherlink.com 1.10,2013-01-15 04:24:00,
2013-01-14 23:39:00,20.5,19.0,30.44,NW,308,0.0,-999.0,92,-99.99,,,0.00,weatherlink.com 1.10,2013-01-15 04:39:00,
2013-01-14 23:54:00,20.7,19.0,30.44,NW,308,0.0,-999.0,92,-99.99,,,0.00,weatherlink.com 1.10,2013-01-15 04:54:00,